Time;durP1;ratioP1;P1;durP2;ratioP2;P2;SDS_P1;SDS_P2;PMS_P1;PMS_P2;Temp;Humidity;BMP_temperature;BMP_pressure;BME280_temperature;BME280_humidity;BME280_pressure;Samples;Min_cycle;Max_cycle;Signal;HPM_P1;HPM_P2
2022/12/30 00:01:06;;;;;;;4.57;3.22;;;;;;;;;;4926322;29;20633;-67
2022/12/30 00:03:32;;;;;;;7.50;3.42;;;;;;;;;;4926522;29;20054;-66
2022/12/30 00:05:57;;;;;;;6.53;3.40;;;;;;;;;;4926947;28;20047;-67
2022/12/30 00:11:06;;;;;;;4.63;3.22;;;;;;;;;;4926792;28;20110;-67
2022/12/30 00:34:27;;;;;;;6.35;2.30;;;;;;;;;;4923390;28;20920;-68
2022/12/30 00:36:53;;;;;;;3.20;2.10;;;;;;;;;;4925487;29;20055;-67
2022/12/30 00:39:18;;;;;;;4.85;2.60;;;;;;;;;;4925361;28;20044;-66
2022/12/30 00:44:27;;;;;;;2.88;2.25;;;;;;;;;;4924720;28;20044;-67
2022/12/30 00:46:54;;;;;;;4.72;1.13;;;;;;;;;;4925194;28;20402;-69
2022/12/30 00:57:31;;;;;;;3.30;0.70;;;;;;;;;;4926367;28;20051;-66
2022/12/30 00:59:58;;;;;;;1.85;1.10;;;;;;;;;;4925852;28;20052;-67
2022/12/30 01:02:23;;;;;;;0.73;0.73;;;;;;;;;;4925730;28;20051;-70
2022/12/30 01:04:49;;;;;;;0.90;0.73;;;;;;;;;;4925543;28;20058;-66
2022/12/30 01:07:14;;;;;;;0.77;0.73;;;;;;;;;;4924421;28;20044;-68
2022/12/30 01:09:39;;;;;;;0.60;0.60;;;;;;;;;;4923752;29;20103;-67
2022/12/30 01:12:08;;;;;;;0.85;0.63;;;;;;;;;;4924105;28;21176;-66
2022/12/30 01:14:37;;;;;;;2.50;0.82;;;;;;;;;;4924554;29;20417;-68
2022/12/30 01:17:03;;;;;;;0.60;0.60;;;;;;;;;;4923193;29;20138;-66
2022/12/30 01:19:29;;;;;;;2.75;0.68;;;;;;;;;;4925796;28;20497;-67
2022/12/30 01:21:54;;;;;;;0.70;0.70;;;;;;;;;;4926683;28;20062;-68
2022/12/30 01:24:19;;;;;;;0.40;0.40;;;;;;;;;;4925159;28;20088;-66
2022/12/30 01:26:45;;;;;;;0.30;0.30;;;;;;;;;;4926421;29;20813;-67
2022/12/30 01:29:10;;;;;;;0.68;0.47;;;;;;;;;;4940941;28;20051;-66
2022/12/30 01:31:36;;;;;;;2.00;0.20;;;;;;;;;;4925560;28;20039;-67
2022/12/30 01:34:01;;;;;;;1.23;0.47;;;;;;;;;;4925498;28;20043;-68
2022/12/30 01:36:26;;;;;;;0.22;0.22;;;;;;;;;;4925451;28;20043;-67
2022/12/30 01:38:52;;;;;;;0.30;0.30;;;;;;;;;;4925623;28;20039;-68
2022/12/30 01:41:18;;;;;;;0.30;0.30;;;;;;;;;;4926084;28;20159;-68
2022/12/30 01:43:49;;;;;;;0.20;0.20;;;;;;;;;;4925298;29;20054;-68
2022/12/30 01:46:26;;;;;;;0.95;0.30;;;;;;;;;;4924762;28;20139;-66
2022/12/30 01:48:54;;;;;;;1.33;0.22;;;;;;;;;;4924226;29;20032;-68
2022/12/30 01:51:27;;;;;;;0.25;0.25;;;;;;;;;;4915919;29;20044;-67
2022/12/30 01:53:54;;;;;;;1.48;0.20;;;;;;;;;;4925751;28;20058;-69
2022/12/30 01:56:22;;;;;;;1.27;0.65;;;;;;;;;;4924603;28;20051;-69
2022/12/30 01:59:00;;;;;;;0.30;0.30;;;;;;;;;;4924931;28;20131;-70
2022/12/30 02:01:26;;;;;;;0.20;0.20;;;;;;;;;;4925446;29;20103;-64
2022/12/30 02:03:58;;;;;;;0.20;0.20;;;;;;;;;;4924762;28;20051;-67
2022/12/30 02:06:31;;;;;;;0.30;0.25;;;;;;;;;;4924348;28;20134;-64
2022/12/30 02:08:56;;;;;;;0.38;0.17;;;;;;;;;;4925667;29;20123;-67
2022/12/30 02:11:23;;;;;;;0.40;0.20;;;;;;;;;;4923832;28;20139;-67
2022/12/30 02:13:48;;;;;;;0.20;0.20;;;;;;;;;;4925617;28;20083;-64
2022/12/30 02:16:53;;;;;;;0.93;0.47;;;;;;;;;;4925262;28;20071;-65
2022/12/30 02:19:18;;;;;;;0.30;0.30;;;;;;;;;;4917149;29;20056;-64
2022/12/30 02:22:04;;;;;;;0.13;0.13;;;;;;;;;;4925422;28;20102;-64
2022/12/30 02:24:48;;;;;;;0.30;0.30;;;;;;;;;;4942763;28;20106;-65
2022/12/30 02:27:34;;;;;;;0.10;0.10;;;;;;;;;;4959649;28;20051;-65
2022/12/30 02:30:00;;;;;;;0.52;0.52;;;;;;;;;;4962196;28;20055;-64
2022/12/30 02:32:33;;;;;;;0.20;0.20;;;;;;;;;;4946140;28;20047;-65
2022/12/30 02:35:25;;;;;;;0.40;0.20;;;;;;;;;;4948002;28;20055;-64
2022/12/30 02:38:28;;;;;;;0.20;0.20;;;;;;;;;;4948425;28;20114;-64
2022/12/30 02:46:39;;;;;;;0.20;0.20;;;;;;;;;;4946740;28;20397;-64
2022/12/30 02:49:07;;;;;;;0.98;0.40;;;;;;;;;;4947913;28;20522;-64
2022/12/30 02:54:18;;;;;;;0.30;0.30;;;;;;;;;;4946412;28;20055;-65
2022/12/30 02:56:48;;;;;;;0.10;0.10;;;;;;;;;;4943045;28;20055;-66
2022/12/30 03:05:49;;;;;;;0.43;0.35;;;;;;;;;;4945929;28;20054;-65
2022/12/30 03:08:37;;;;;;;0.20;0.20;;;;;;;;;;4945826;28;20039;-67
2022/12/30 03:11:17;;;;;;;0.30;0.30;;;;;;;;;;4945597;28;20493;-66
2022/12/30 03:14:06;;;;;;;0.20;0.20;;;;;;;;;;4945851;28;20074;-66
2022/12/30 03:16:51;;;;;;;0.20;0.20;;;;;;;;;;4944755;28;20051;-65
2022/12/30 03:19:20;;;;;;;0.20;0.20;;;;;;;;;;4946214;28;20047;-66
2022/12/30 03:21:48;;;;;;;0.28;0.22;;;;;;;;;;4945921;28;20416;-65
2022/12/30 03:27:05;;;;;;;0.20;0.20;;;;;;;;;;4946163;28;20500;-66
2022/12/30 03:29:46;;;;;;;0.30;0.30;;;;;;;;;;4945390;28;20130;-66
2022/12/30 03:32:14;;;;;;;0.20;0.20;;;;;;;;;;4946471;28;20463;-66
2022/12/30 03:34:40;;;;;;;2.78;0.45;;;;;;;;;;4946182;28;20547;-65
2022/12/30 03:37:18;;;;;;;0.10;0.10;;;;;;;;;;4946085;28;20055;-65
2022/12/30 03:40:23;;;;;;;0.28;0.25;;;;;;;;;;4944898;28;20075;-66
2022/12/30 03:42:51;;;;;;;0.30;0.30;;;;;;;;;;4920674;28;20071;-65
2022/12/30 03:45:17;;;;;;;0.32;0.30;;;;;;;;;;4944152;28;20444;-66
2022/12/30 03:47:43;;;;;;;1.38;0.32;;;;;;;;;;4944927;28;20106;-66
2022/12/30 03:50:08;;;;;;;0.30;0.30;;;;;;;;;;4943352;28;20504;-65
2022/12/30 03:52:34;;;;;;;0.10;0.10;;;;;;;;;;4944536;28;20907;-67
2022/12/30 03:54:59;;;;;;;0.20;0.20;;;;;;;;;;4945206;28;20141;-65
2022/12/30 03:57:25;;;;;;;0.15;0.15;;;;;;;;;;4944789;28;20047;-66
2022/12/30 03:59:50;;;;;;;0.55;0.20;;;;;;;;;;4944814;28;20472;-65
2022/12/30 04:02:16;;;;;;;1.45;0.20;;;;;;;;;;4943232;28;20062;-67
2022/12/30 04:04:41;;;;;;;0.20;0.20;;;;;;;;;;4944049;28;20058;-64
2022/12/30 04:07:07;;;;;;;0.45;0.30;;;;;;;;;;4944674;28;20055;-65
2022/12/30 04:09:32;;;;;;;0.20;0.20;;;;;;;;;;4944758;28;20055;-65
2022/12/30 04:11:58;;;;;;;0.20;0.20;;;;;;;;;;4943196;28;20051;-65
2022/12/30 04:14:23;;;;;;;0.20;0.20;;;;;;;;;;4957766;28;20043;-65
2022/12/30 04:16:49;;;;;;;0.22;0.22;;;;;;;;;;4944409;28;20051;-65
2022/12/30 04:19:14;;;;;;;0.50;0.20;;;;;;;;;;4944292;28;20138;-66
2022/12/30 04:21:40;;;;;;;0.15;0.15;;;;;;;;;;4958654;28;20125;-65
2022/12/30 04:24:06;;;;;;;0.20;0.20;;;;;;;;;;4942951;28;20487;-66
2022/12/30 04:26:31;;;;;;;0.10;0.10;;;;;;;;;;4960296;28;20071;-66
2022/12/30 04:28:57;;;;;;;0.20;0.20;;;;;;;;;;4945426;28;20047;-66
2022/12/30 04:31:22;;;;;;;0.30;0.30;;;;;;;;;;4944561;28;20046;-66
2022/12/30 04:33:49;;;;;;;0.30;0.30;;;;;;;;;;4944315;28;20062;-65
2022/12/30 04:36:15;;;;;;;0.60;0.25;;;;;;;;;;4945007;28;20047;-66
2022/12/30 04:38:40;;;;;;;0.30;0.30;;;;;;;;;;4945258;28;20110;-67
2022/12/30 04:41:05;;;;;;;0.77;0.50;;;;;;;;;;4945731;28;20047;-66
2022/12/30 04:43:31;;;;;;;0.20;0.20;;;;;;;;;;4944218;28;20051;-67
2022/12/30 04:45:56;;;;;;;1.45;0.20;;;;;;;;;;4943789;28;20145;-66
2022/12/30 04:48:22;;;;;;;0.45;0.20;;;;;;;;;;4943309;28;20159;-67
2022/12/30 04:50:48;;;;;;;0.20;0.20;;;;;;;;;;4943784;28;20142;-65
2022/12/30 04:53:13;;;;;;;0.10;0.10;;;;;;;;;;4942993;28;20043;-66
2022/12/30 04:55:39;;;;;;;2.95;0.20;;;;;;;;;;4941954;28;20043;-66
2022/12/30 04:58:04;;;;;;;0.20;0.20;;;;;;;;;;4942883;28;20042;-66
2022/12/30 05:00:31;;;;;;;0.52;0.40;;;;;;;;;;4942608;28;20479;-67
2022/12/30 05:02:56;;;;;;;0.35;0.35;;;;;;;;;;4942110;28;20106;-66
2022/12/30 05:05:21;;;;;;;0.52;0.22;;;;;;;;;;4941864;28;20039;-66
2022/12/30 05:07:47;;;;;;;0.98;0.52;;;;;;;;;;4938088;28;20050;-66
2022/12/30 05:10:12;;;;;;;0.65;0.52;;;;;;;;;;4939060;28;20053;-66
2022/12/30 05:12:38;;;;;;;0.30;0.30;;;;;;;;;;4941895;28;20054;-66
2022/12/30 05:15:04;;;;;;;0.40;0.40;;;;;;;;;;4942062;28;20058;-67
2022/12/30 05:17:29;;;;;;;0.52;0.30;;;;;;;;;;4941656;28;20417;-67
2022/12/30 05:19:55;;;;;;;0.30;0.30;;;;;;;;;;4942235;28;20044;-67
2022/12/30 05:22:24;;;;;;;2.90;0.40;;;;;;;;;;4941443;28;20046;-67
2022/12/30 05:27:34;;;;;;;1.63;0.60;;;;;;;;;;4942077;28;20058;-67
2022/12/30 05:29:59;;;;;;;0.88;0.50;;;;;;;;;;4924900;28;20039;-67
2022/12/30 05:32:25;;;;;;;0.40;0.22;;;;;;;;;;4922254;28;20166;-65
2022/12/30 05:34:50;;;;;;;2.42;0.50;;;;;;;;;;4922571;28;20043;-67
2022/12/30 05:37:15;;;;;;;0.30;0.30;;;;;;;;;;4923220;28;20047;-66
2022/12/30 05:39:41;;;;;;;2.97;0.40;;;;;;;;;;4936420;28;20926;-66
2022/12/30 05:42:06;;;;;;;0.30;0.30;;;;;;;;;;4922068;28;20044;-66
2022/12/30 05:44:32;;;;;;;0.35;0.35;;;;;;;;;;4921455;28;20066;-66
2022/12/30 05:46:58;;;;;;;0.85;0.38;;;;;;;;;;4922343;29;20039;-68
2022/12/30 05:49:23;;;;;;;0.40;0.40;;;;;;;;;;4922644;28;20039;-68
2022/12/30 05:51:49;;;;;;;0.95;0.40;;;;;;;;;;4922132;28;20301;-67
2022/12/30 05:54:14;;;;;;;1.55;0.40;;;;;;;;;;4921097;28;20048;-67
2022/12/30 05:56:40;;;;;;;0.50;0.40;;;;;;;;;;4922501;28;20204;-66
2022/12/30 05:59:05;;;;;;;0.98;0.50;;;;;;;;;;4923523;29;20039;-69
2022/12/30 06:01:31;;;;;;;0.40;0.40;;;;;;;;;;4922337;28;20075;-68
2022/12/30 06:03:56;;;;;;;0.57;0.50;;;;;;;;;;4919655;28;20067;-71
2022/12/30 06:06:23;;;;;;;0.50;0.50;;;;;;;;;;4921630;28;20039;-71
2022/12/30 06:08:48;;;;;;;2.08;0.38;;;;;;;;;;4922448;28;20682;-66
2022/12/30 06:11:14;;;;;;;2.45;0.65;;;;;;;;;;4922809;29;20696;-69
2022/12/30 06:13:39;;;;;;;3.40;0.60;;;;;;;;;;4921623;28;20082;-70
2022/12/30 06:16:05;;;;;;;0.65;0.65;;;;;;;;;;4921705;29;21167;-70
2022/12/30 06:18:31;;;;;;;1.83;0.57;;;;;;;;;;4922142;28;20106;-69
2022/12/30 06:20:56;;;;;;;0.63;0.60;;;;;;;;;;4937796;28;20385;-68
2022/12/30 06:23:23;;;;;;;1.58;0.60;;;;;;;;;;4921470;29;20058;-70
2022/12/30 06:25:54;;;;;;;0.70;0.70;;;;;;;;;;4922342;28;20071;-69
2022/12/30 06:28:20;;;;;;;1.02;0.70;;;;;;;;;;4921505;28;20043;-67
2022/12/30 06:30:45;;;;;;;0.73;0.60;;;;;;;;;;4921343;28;20476;-68
2022/12/30 06:33:10;;;;;;;2.08;0.82;;;;;;;;;;4919585;28;20063;-67
2022/12/30 06:35:36;;;;;;;0.50;0.50;;;;;;;;;;4917129;29;20505;-67
2022/12/30 06:38:01;;;;;;;1.15;0.68;;;;;;;;;;4917224;28;20102;-67
2022/12/30 06:40:27;;;;;;;1.80;0.77;;;;;;;;;;4916548;28;20697;-67
2022/12/30 06:42:53;;;;;;;1.67;1.00;;;;;;;;;;4931485;28;20047;-67
2022/12/30 06:45:18;;;;;;;3.45;0.85;;;;;;;;;;4916894;28;20102;-66
2022/12/30 06:47:44;;;;;;;8.82;0.98;;;;;;;;;;4920384;28;20056;-66
2022/12/30 06:50:09;;;;;;;0.73;0.63;;;;;;;;;;4935711;29;20046;-66
2022/12/30 06:52:35;;;;;;;0.95;0.70;;;;;;;;;;4921885;28;20051;-69
2022/12/30 06:55:00;;;;;;;3.00;0.80;;;;;;;;;;4922206;29;20042;-69
2022/12/30 06:57:26;;;;;;;5.90;0.70;;;;;;;;;;4921567;28;20524;-71
2022/12/30 06:59:51;;;;;;;1.40;0.90;;;;;;;;;;4922656;28;20493;-68
2022/12/30 07:02:16;;;;;;;1.02;0.70;;;;;;;;;;4920963;28;20044;-69
2022/12/30 07:04:42;;;;;;;1.13;1.00;;;;;;;;;;4921553;28;20107;-67
2022/12/30 07:07:07;;;;;;;2.45;1.10;;;;;;;;;;4921129;28;20841;-66
2022/12/30 07:09:33;;;;;;;0.80;0.80;;;;;;;;;;4921708;28;20035;-67
2022/12/30 07:11:58;;;;;;;1.70;0.80;;;;;;;;;;4921177;28;20071;-67
2022/12/30 07:14:23;;;;;;;0.70;0.70;;;;;;;;;;4920824;28;20039;-67
2022/12/30 07:16:49;;;;;;;0.75;0.75;;;;;;;;;;4920856;28;21451;-67
2022/12/30 07:19:14;;;;;;;0.65;0.65;;;;;;;;;;4916129;29;20572;-67
2022/12/30 07:21:40;;;;;;;1.00;0.80;;;;;;;;;;4922646;28;21013;-68
2022/12/30 07:24:06;;;;;;;0.70;0.70;;;;;;;;;;4921471;29;20195;-67
2022/12/30 07:26:32;;;;;;;0.77;0.77;;;;;;;;;;4920290;29;20051;-68
2022/12/30 07:28:57;;;;;;;27.63;17.08;;;;;;;;;;4935854;29;20050;-68
2022/12/30 07:31:23;;;;;;;1.40;1.30;;;;;;;;;;4922839;28;20043;-68
2022/12/30 07:33:48;;;;;;;1.10;1.00;;;;;;;;;;4924429;28;20493;-67
2022/12/30 07:36:14;;;;;;;1.77;1.17;;;;;;;;;;4924591;28;20516;-67
2022/12/30 07:38:39;;;;;;;1.08;0.98;;;;;;;;;;4923959;29;20711;-66
2022/12/30 07:41:06;;;;;;;1.58;0.80;;;;;;;;;;4923379;29;20043;-67
2022/12/30 07:43:32;;;;;;;4.43;0.98;;;;;;;;;;4923834;28;20039;-67
2022/12/30 07:45:58;;;;;;;1.27;0.80;;;;;;;;;;4921700;29;20039;-67
2022/12/30 07:48:23;;;;;;;1.08;0.70;;;;;;;;;;4923610;29;21285;-68
2022/12/30 07:50:49;;;;;;;0.60;0.60;;;;;;;;;;4921591;28;20054;-67
2022/12/30 07:53:14;;;;;;;1.38;0.70;;;;;;;;;;4922835;29;20054;-67
2022/12/30 07:55:40;;;;;;;1.33;0.60;;;;;;;;;;4923979;29;20134;-67
2022/12/30 07:58:06;;;;;;;0.82;0.82;;;;;;;;;;4924529;28;20130;-67
2022/12/30 08:00:32;;;;;;;1.20;1.10;;;;;;;;;;4941514;28;20540;-67
2022/12/30 08:02:58;;;;;;;3.35;0.90;;;;;;;;;;4947531;28;20074;-67
2022/12/30 08:05:23;;;;;;;1.40;1.10;;;;;;;;;;4957046;28;20130;-67
2022/12/30 08:07:52;;;;;;;2.72;2.45;;;;;;;;;;4943416;28;20070;-67
2022/12/30 08:10:18;;;;;;;1.50;1.25;;;;;;;;;;4955001;28;20063;-67
2022/12/30 08:12:45;;;;;;;3.08;1.33;;;;;;;;;;4942922;28;20051;-67
2022/12/30 08:15:11;;;;;;;3.75;2.55;;;;;;;;;;4953277;28;20046;-68
2022/12/30 08:17:36;;;;;;;1.58;1.38;;;;;;;;;;4942594;28;20047;-67
2022/12/30 08:20:03;;;;;;;1.92;1.30;;;;;;;;;;4942757;28;20389;-68
2022/12/30 08:22:28;;;;;;;2.88;1.60;;;;;;;;;;4942105;28;20075;-67
2022/12/30 08:24:54;;;;;;;1.17;1.10;;;;;;;;;;4940986;28;20170;-67
2022/12/30 08:27:19;;;;;;;1.63;1.30;;;;;;;;;;4943410;28;20408;-67
2022/12/30 08:29:45;;;;;;;1.60;0.80;;;;;;;;;;4943265;28;20284;-67
2022/12/30 08:32:10;;;;;;;1.15;0.80;;;;;;;;;;4940874;28;20051;-68
2022/12/30 08:34:36;;;;;;;0.68;0.68;;;;;;;;;;4942458;28;20065;-68
2022/12/30 08:37:02;;;;;;;1.05;0.63;;;;;;;;;;4942518;28;20043;-67
2022/12/30 08:39:27;;;;;;;0.85;0.63;;;;;;;;;;4942965;28;20086;-67
2022/12/30 08:41:53;;;;;;;3.22;0.73;;;;;;;;;;4941932;28;20101;-69
2022/12/30 08:44:18;;;;;;;0.77;0.68;;;;;;;;;;4941174;28;20051;-68
2022/12/30 08:46:44;;;;;;;1.23;0.52;;;;;;;;;;4941951;28;20047;-68
2022/12/30 08:49:11;;;;;;;0.70;0.63;;;;;;;;;;4941474;28;20130;-69
2022/12/30 08:51:37;;;;;;;1.55;0.70;;;;;;;;;;4940689;28;20106;-67
2022/12/30 08:54:04;;;;;;;1.20;0.80;;;;;;;;;;4940246;28;20047;-67
2022/12/30 08:56:32;;;;;;;0.93;0.80;;;;;;;;;;4942393;28;20051;-67
2022/12/30 08:58:58;;;;;;;1.15;1.00;;;;;;;;;;4942435;28;20047;-68
2022/12/30 09:01:27;;;;;;;1.80;1.00;;;;;;;;;;4942205;28;20062;-67
2022/12/30 09:03:53;;;;;;;1.67;1.10;;;;;;;;;;4941760;28;20094;-68
2022/12/30 09:06:21;;;;;;;1.00;0.90;;;;;;;;;;4942422;28;20046;-67
2022/12/30 09:08:47;;;;;;;2.35;1.20;;;;;;;;;;4941180;28;20510;-67
2022/12/30 09:11:22;;;;;;;1.23;1.10;;;;;;;;;;4941289;28;20075;-68
2022/12/30 09:13:47;;;;;;;1.30;1.20;;;;;;;;;;4941492;28;20055;-67
2022/12/30 09:16:15;;;;;;;1.27;1.17;;;;;;;;;;4942227;28;20054;-67
2022/12/30 09:18:41;;;;;;;3.05;1.13;;;;;;;;;;4940726;28;20196;-67
2022/12/30 09:21:06;;;;;;;2.15;1.05;;;;;;;;;;4940371;28;20055;-67
2022/12/30 09:23:32;;;;;;;1.98;1.05;;;;;;;;;;4941391;28;20075;-68
2022/12/30 09:25:58;;;;;;;1.15;1.10;;;;;;;;;;4941159;28;20536;-68
2022/12/30 09:28:24;;;;;;;1.95;1.33;;;;;;;;;;4940101;28;20042;-68
2022/12/30 09:30:49;;;;;;;3.25;1.88;;;;;;;;;;4939605;28;20459;-67
2022/12/30 09:33:15;;;;;;;3.75;1.60;;;;;;;;;;4940659;28;20765;-68
2022/12/30 09:35:40;;;;;;;2.08;1.88;;;;;;;;;;4941067;28;20039;-67
2022/12/30 09:38:06;;;;;;;2.67;2.22;;;;;;;;;;4941216;28;20568;-67
2022/12/30 09:40:51;;;;;;;2.33;2.10;;;;;;;;;;4940840;28;20061;-68
2022/12/30 09:43:43;;;;;;;2.85;1.73;;;;;;;;;;4940422;28;20468;-67
2022/12/30 09:46:20;;;;;;;3.33;1.83;;;;;;;;;;4941110;28;20130;-69
2022/12/30 09:49:03;;;;;;;2.65;1.85;;;;;;;;;;4940186;28;20055;-67
2022/12/30 09:51:42;;;;;;;2.78;1.55;;;;;;;;;;4934857;28;20447;-69
2022/12/30 09:54:14;;;;;;;2.40;2.20;;;;;;;;;;4931397;28;20433;-68
2022/12/30 09:56:42;;;;;;;2.22;1.42;;;;;;;;;;4948571;28;20059;-67
2022/12/30 09:59:32;;;;;;;4.75;2.03;;;;;;;;;;4921277;28;20044;-68
2022/12/30 10:02:15;;;;;;;2.67;1.52;;;;;;;;;;4935230;28;20046;-67
2022/12/30 10:04:41;;;;;;;1.67;1.58;;;;;;;;;;4947186;28;20052;-68
2022/12/30 10:07:21;;;;;;;2.53;1.67;;;;;;;;;;4928524;28;20039;-68
2022/12/30 10:09:59;;;;;;;1.48;1.30;;;;;;;;;;4949111;28;20214;-68
2022/12/30 10:12:50;;;;;;;1.65;1.15;;;;;;;;;;4953981;28;20040;-69
2022/12/30 10:15:37;;;;;;;2.08;1.45;;;;;;;;;;4928926;28;20051;-68
2022/12/30 10:18:27;;;;;;;3.28;1.48;;;;;;;;;;4920413;28;20055;-68
2022/12/30 10:21:15;;;;;;;3.15;2.33;;;;;;;;;;4932781;28;20048;-68
2022/12/30 10:23:41;;;;;;;4.25;2.53;;;;;;;;;;4918315;28;20056;-68
2022/12/30 10:26:15;;;;;;;3.72;2.55;;;;;;;;;;4933740;28;20106;-68
2022/12/30 10:28:46;;;;;;;3.70;2.10;;;;;;;;;;4936006;28;20082;-66
2022/12/30 10:31:20;;;;;;;3.40;2.00;;;;;;;;;;4938749;28;20047;-67
2022/12/30 10:33:48;;;;;;;2.17;1.60;;;;;;;;;;4938769;28;20088;-67
2022/12/30 10:36:38;;;;;;;2.03;1.58;;;;;;;;;;4952680;28;20062;-67
2022/12/30 10:39:18;;;;;;;2.63;1.60;;;;;;;;;;4953203;28;20137;-67
2022/12/30 10:42:21;;;;;;;2.17;1.77;;;;;;;;;;4939323;28;20116;-69
2022/12/30 10:45:26;;;;;;;1.55;1.45;;;;;;;;;;4938065;28;20070;-69
2022/12/30 10:48:10;;;;;;;1.58;1.48;;;;;;;;;;4917335;28;20904;-69
2022/12/30 10:50:41;;;;;;;4.20;2.70;;;;;;;;;;4940593;28;20051;-66
2022/12/30 10:53:17;;;;;;;3.53;2.80;;;;;;;;;;4940559;28;20079;-70
2022/12/30 10:55:57;;;;;;;5.70;2.83;;;;;;;;;;4936198;28;20070;-70
2022/12/30 10:58:40;;;;;;;3.88;2.20;;;;;;;;;;4940977;28;20047;-70
2022/12/30 11:01:11;;;;;;;4.20;1.73;;;;;;;;;;4941399;28;20110;-67
2022/12/30 11:03:42;;;;;;;1.40;1.30;;;;;;;;;;4944567;28;20899;-67
2022/12/30 11:06:20;;;;;;;1.38;1.10;;;;;;;;;;4959386;28;21076;-67
2022/12/30 11:08:45;;;;;;;1.85;0.90;;;;;;;;;;4951146;28;20039;-68
2022/12/30 11:11:11;;;;;;;2.45;0.80;;;;;;;;;;4923276;28;20054;-68
2022/12/30 11:16:34;;;;;;;1.48;1.35;;;;;;;;;;4943273;28;20035;-68
2022/12/30 11:19:03;;;;;;;0.88;0.82;;;;;;;;;;4943659;28;20086;-66
2022/12/30 11:21:31;;;;;;;1.75;1.10;;;;;;;;;;4942259;28;20420;-68
2022/12/30 11:23:58;;;;;;;1.30;1.00;;;;;;;;;;4944299;28;20043;-67
2022/12/30 11:26:27;;;;;;;0.80;0.80;;;;;;;;;;4943933;28;20511;-68
2022/12/30 11:29:00;;;;;;;1.10;0.85;;;;;;;;;;4945052;28;20508;-67
2022/12/30 11:31:32;;;;;;;0.90;0.90;;;;;;;;;;4941435;28;20047;-68
2022/12/30 11:33:59;;;;;;;1.00;1.00;;;;;;;;;;4943681;28;20055;-68
2022/12/30 11:36:29;;;;;;;1.02;0.90;;;;;;;;;;4943490;28;20551;-69
2022/12/30 11:38:57;;;;;;;0.68;0.68;;;;;;;;;;4944677;28;20047;-69
2022/12/30 11:41:24;;;;;;;1.70;0.70;;;;;;;;;;4942686;28;20043;-69
2022/12/30 11:43:59;;;;;;;0.55;0.55;;;;;;;;;;4942679;28;21025;-70
2022/12/30 11:46:47;;;;;;;0.65;0.60;;;;;;;;;;4941716;28;20523;-70
2022/12/30 11:49:35;;;;;;;0.93;0.60;;;;;;;;;;4942661;28;20071;-69
2022/12/30 11:52:04;;;;;;;1.40;0.85;;;;;;;;;;4939682;28;20047;-69
2022/12/30 11:54:39;;;;;;;1.45;1.35;;;;;;;;;;4939921;28;20059;-69
2022/12/30 11:57:14;;;;;;;0.88;0.60;;;;;;;;;;4943295;28;20054;-69
2022/12/30 11:59:48;;;;;;;0.60;0.60;;;;;;;;;;4942444;28;20053;-70
2022/12/30 12:02:23;;;;;;;1.85;1.00;;;;;;;;;;4934230;28;20051;-70
2022/12/30 12:04:52;;;;;;;0.50;0.50;;;;;;;;;;4939104;28;20054;-69
2022/12/30 12:07:21;;;;;;;0.75;0.70;;;;;;;;;;4938650;28;20105;-68
2022/12/30 12:09:52;;;;;;;2.05;0.82;;;;;;;;;;4940878;28;20051;-68
2022/12/30 12:12:20;;;;;;;0.85;0.80;;;;;;;;;;4938966;28;20039;-69
2022/12/30 12:14:45;;;;;;;0.70;0.70;;;;;;;;;;4939819;28;21003;-68
2022/12/30 12:17:29;;;;;;;1.90;0.68;;;;;;;;;;4940031;28;20051;-69
2022/12/30 12:20:05;;;;;;;1.00;0.75;;;;;;;;;;4940984;28;20050;-68
2022/12/30 12:22:42;;;;;;;0.70;0.60;;;;;;;;;;4939988;28;20523;-69
2022/12/30 12:25:18;;;;;;;1.17;0.95;;;;;;;;;;4940405;28;20050;-69
2022/12/30 12:27:44;;;;;;;0.90;0.63;;;;;;;;;;4941538;28;20055;-69
2022/12/30 12:30:12;;;;;;;0.88;0.50;;;;;;;;;;4940633;28;20079;-70
2022/12/30 12:32:44;;;;;;;0.60;0.60;;;;;;;;;;4939117;28;20047;-70
2022/12/30 12:35:16;;;;;;;5.20;0.65;;;;;;;;;;4940717;28;20043;-70
2022/12/30 12:38:02;;;;;;;1.20;0.60;;;;;;;;;;4939104;28;20066;-70
2022/12/30 12:40:46;;;;;;;0.70;0.70;;;;;;;;;;4953390;28;20062;-70
2022/12/30 12:43:27;;;;;;;1.05;0.93;;;;;;;;;;4939500;28;20051;-69
2022/12/30 12:46:30;;;;;;;0.55;0.50;;;;;;;;;;4939827;28;20055;-70
2022/12/30 12:49:33;;;;;;;0.65;0.63;;;;;;;;;;4869848;29;20100;-70
2022/12/30 12:52:15;;;;;;;0.77;0.77;;;;;;;;;;4900985;29;21131;-70
2022/12/30 12:55:01;;;;;;;2.67;1.10;;;;;;;;;;4908000;28;20527;-70
2022/12/30 12:57:55;;;;;;;0.85;0.60;;;;;;;;;;4940994;28;20090;-71
2022/12/30 13:00:22;;;;;;;1.35;0.65;;;;;;;;;;4939965;28;20051;-71
2022/12/30 13:03:06;;;;;;;0.70;0.70;;;;;;;;;;4942370;28;20062;-70
2022/12/30 13:05:38;;;;;;;0.60;0.60;;;;;;;;;;4941063;28;20083;-70
2022/12/30 13:08:06;;;;;;;1.35;0.80;;;;;;;;;;4941569;28;20069;-69
2022/12/30 13:10:35;;;;;;;0.55;0.55;;;;;;;;;;4940525;28;21142;-69
2022/12/30 13:13:25;;;;;;;0.98;0.80;;;;;;;;;;4940607;28;20135;-69
2022/12/30 13:15:57;;;;;;;1.38;0.80;;;;;;;;;;4939823;28;20051;-68
2022/12/30 13:18:25;;;;;;;0.63;0.60;;;;;;;;;;4940669;28;20042;-69
2022/12/30 13:20:55;;;;;;;1.27;0.80;;;;;;;;;;4939544;28;20070;-68
2022/12/30 13:23:24;;;;;;;2.35;0.60;;;;;;;;;;4940366;28;20055;-68
2022/12/30 13:25:57;;;;;;;1.90;0.80;;;;;;;;;;4938977;28;20059;-68
2022/12/30 13:28:26;;;;;;;1.27;0.90;;;;;;;;;;4940860;28;20047;-69
2022/12/30 13:30:55;;;;;;;0.70;0.70;;;;;;;;;;4940965;28;21203;-68
2022/12/30 13:33:37;;;;;;;0.70;0.70;;;;;;;;;;4942015;28;20069;-68
2022/12/30 13:36:18;;;;;;;0.60;0.60;;;;;;;;;;4940893;28;20047;-68
2022/12/30 13:39:00;;;;;;;1.23;0.80;;;;;;;;;;4953077;28;20116;-69
2022/12/30 13:41:48;;;;;;;0.93;0.80;;;;;;;;;;4938383;28;20087;-69
2022/12/30 13:44:17;;;;;;;2.60;0.80;;;;;;;;;;4938619;28;20710;-70
2022/12/30 13:46:50;;;;;;;0.90;0.75;;;;;;;;;;4939010;28;20142;-69
2022/12/30 13:49:32;;;;;;;0.80;0.80;;;;;;;;;;4940547;28;20043;-69
2022/12/30 13:52:01;;;;;;;1.10;0.80;;;;;;;;;;4940695;28;20050;-69
2022/12/30 13:54:28;;;;;;;2.30;1.65;;;;;;;;;;4938522;28;20051;-69
2022/12/30 13:56:55;;;;;;;1.40;0.85;;;;;;;;;;4940059;28;20972;-69
2022/12/30 13:59:33;;;;;;;2.00;0.90;;;;;;;;;;4942258;28;20094;-69
2022/12/30 14:02:10;;;;;;;1.00;0.90;;;;;;;;;;4940211;28;20078;-69
2022/12/30 14:04:48;;;;;;;1.33;0.80;;;;;;;;;;4939555;28;20053;-69
2022/12/30 14:07:39;;;;;;;1.13;0.90;;;;;;;;;;4941018;28;20051;-68
2022/12/30 14:10:17;;;;;;;1.15;0.95;;;;;;;;;;4941127;28;20728;-68
2022/12/30 14:12:45;;;;;;;3.20;0.82;;;;;;;;;;4953542;28;20043;-68
2022/12/30 14:15:33;;;;;;;0.90;0.90;;;;;;;;;;4939166;28;20138;-69
2022/12/30 14:18:23;;;;;;;1.02;0.95;;;;;;;;;;4930099;29;20054;-68
2022/12/30 14:20:59;;;;;;;1.10;1.00;;;;;;;;;;4952260;28;20466;-68
2022/12/30 14:23:56;;;;;;;0.77;0.77;;;;;;;;;;4941027;28;20226;-69
2022/12/30 14:26:22;;;;;;;1.85;1.17;;;;;;;;;;4941955;28;20044;-69
2022/12/30 14:28:53;;;;;;;1.65;1.10;;;;;;;;;;4945654;28;20451;-69
2022/12/30 14:31:29;;;;;;;2.67;1.10;;;;;;;;;;4945010;28;20155;-69
2022/12/30 14:33:58;;;;;;;1.65;1.40;;;;;;;;;;4944222;28;20126;-69
2022/12/30 14:36:28;;;;;;;1.50;1.40;;;;;;;;;;4942298;28;20051;-69
2022/12/30 14:38:58;;;;;;;2.38;1.40;;;;;;;;;;4944943;28;20059;-69
2022/12/30 14:41:36;;;;;;;1.60;1.45;;;;;;;;;;4945145;28;20047;-69
2022/12/30 14:44:03;;;;;;;1.27;1.02;;;;;;;;;;4944887;28;20055;-69
2022/12/30 14:46:40;;;;;;;1.13;1.02;;;;;;;;;;4944145;28;20074;-69
2022/12/30 14:49:17;;;;;;;1.73;1.50;;;;;;;;;;4943689;28;20051;-69
2022/12/30 14:51:46;;;;;;;3.47;1.25;;;;;;;;;;4944184;28;20046;-69
2022/12/30 14:54:15;;;;;;;1.73;1.63;;;;;;;;;;4944751;28;20039;-69
2022/12/30 14:57:16;;;;;;;1.83;1.35;;;;;;;;;;4945225;28;20051;-69
2022/12/30 14:59:56;;;;;;;1.50;1.30;;;;;;;;;;4891692;29;20052;-69
2022/12/30 15:02:28;;;;;;;1.42;1.33;;;;;;;;;;4920419;28;20102;-69
2022/12/30 15:05:07;;;;;;;1.60;1.50;;;;;;;;;;4936805;28;20062;-69
2022/12/30 15:07:34;;;;;;;1.55;1.45;;;;;;;;;;4940368;28;20489;-69
2022/12/30 15:10:01;;;;;;;1.98;1.70;;;;;;;;;;4939119;28;20044;-69
2022/12/30 15:12:27;;;;;;;3.30;1.70;;;;;;;;;;4923934;28;20047;-69
2022/12/30 15:14:56;;;;;;;1.80;1.70;;;;;;;;;;4923976;29;20700;-69
2022/12/30 15:17:23;;;;;;;2.70;2.00;;;;;;;;;;4924990;29;20079;-69
2022/12/30 15:19:49;;;;;;;2.85;2.00;;;;;;;;;;4924232;28;20571;-69
2022/12/30 15:22:22;;;;;;;1.58;1.48;;;;;;;;;;4922064;28;21142;-69
2022/12/30 15:24:47;;;;;;;1.70;1.60;;;;;;;;;;4923665;28;20766;-69
2022/12/30 15:27:18;;;;;;;2.38;1.88;;;;;;;;;;4924959;29;20051;-70
2022/12/30 15:29:44;;;;;;;2.58;2.30;;;;;;;;;;4923547;29;20060;-69
2022/12/30 15:32:28;;;;;;;3.17;2.00;;;;;;;;;;4923613;28;20095;-69
2022/12/30 15:34:56;;;;;;;3.22;2.03;;;;;;;;;;4935768;28;20428;-69
2022/12/30 15:37:27;;;;;;;2.10;1.77;;;;;;;;;;4923127;28;20075;-70
2022/12/30 15:39:56;;;;;;;3.65;2.20;;;;;;;;;;4924674;28;20048;-69
2022/12/30 15:42:29;;;;;;;2.50;1.80;;;;;;;;;;4923812;28;20043;-69
2022/12/30 15:45:01;;;;;;;3.15;2.05;;;;;;;;;;4924647;29;20098;-69
2022/12/30 15:47:28;;;;;;;2.08;1.83;;;;;;;;;;4925121;29;20048;-70
2022/12/30 15:49:59;;;;;;;4.32;2.00;;;;;;;;;;4924900;28;20060;-70
2022/12/30 15:52:31;;;;;;;2.05;1.85;;;;;;;;;;4924652;28;20095;-70
2022/12/30 15:55:00;;;;;;;3.78;2.03;;;;;;;;;;4924034;28;20047;-70
2022/12/30 15:57:25;;;;;;;3.15;1.67;;;;;;;;;;4925542;28;20052;-70
2022/12/30 15:59:55;;;;;;;2.85;1.90;;;;;;;;;;4925397;29;20052;-69
2022/12/30 16:02:26;;;;;;;17.05;5.78;;;;;;;;;;4924373;28;20436;-69